sensor_id;sensor_type;location;lat;lon;timestamp;pressure;altitude;pressure_sealevel;temperature;humidity
18900;BME280;9582;52.018;6.306;2023-03-26T00:01:36;102410.56;;;7.68;100.00
18900;BME280;9582;52.018;6.306;2023-03-26T00:04:04;102399.31;;;7.68;100.00
18900;BME280;9582;52.018;6.306;2023-03-26T00:06:33;102399.31;;;7.66;100.00
18900;BME280;9582;52.018;6.306;2023-03-26T00:09:04;102385.44;;;7.64;100.00
18900;BME280;9582;52.018;6.306;2023-03-26T00:11:31;102378.53;;;7.62;100.00
18900;BME280;9582;52.018;6.306;2023-03-26T00:13:58;102380.28;;;7.61;100.00
18900;BME280;9582;52.018;6.306;2023-03-26T00:16:28;102377.66;;;7.60;100.00
18900;BME280;9582;52.018;6.306;2023-03-26T00:18:55;102371.63;;;7.59;100.00
18900;BME280;9582;52.018;6.306;2023-03-26T00:21:23;102366.41;;;7.57;100.00
18900;BME280;9582;52.018;6.306;2023-03-26T00:23:52;102370.75;;;7.57;100.00
18900;BME280;9582;52.018;6.306;2023-03-26T00:26:19;102362.94;;;7.59;100.00
18900;BME280;9582;52.018;6.306;2023-03-26T00:28:46;102357.69;;;7.60;100.00
18900;BME280;9582;52.018;6.306;2023-03-26T00:31:15;102362.91;;;7.65;100.00
18900;BME280;9582;52.018;6.306;2023-03-26T00:33:43;102353.31;;;7.65;100.00
18900;BME280;9582;52.018;6.306;2023-03-26T00:36:13;102344.66;;;7.65;100.00
18900;BME280;9582;52.018;6.306;2023-03-26T00:38:42;102347.28;;;7.65;100.00
18900;BME280;9582;52.018;6.306;2023-03-26T00:41:10;102341.19;;;7.64;100.00
18900;BME280;9582;52.018;6.306;2023-03-26T00:43:42;102338.59;;;7.63;100.00
18900;BME280;9582;52.018;6.306;2023-03-26T00:46:09;102337.78;;;7.59;100.00
18900;BME280;9582;52.018;6.306;2023-03-26T00:48:35;102336.09;;;7.52;100.00
18900;BME280;9582;52.018;6.306;2023-03-26T00:51:05;102332.63;;;7.50;100.00
18900;BME280;9582;52.018;6.306;2023-03-26T00:53:33;102325.72;;;7.46;100.00
18900;BME280;9582;52.018;6.306;2023-03-26T00:56:02;102327.47;;;7.47;100.00
18900;BME280;9582;52.018;6.306;2023-03-26T00:58:29;102324.84;;;7.45;100.00
18900;BME280;9582;52.018;6.306;2023-03-26T01:01:00;102326.59;;;7.46;100.00
18900;BME280;9582;52.018;6.306;2023-03-26T01:03:30;102323.94;;;7.48;100.00
18900;BME280;9582;52.018;6.306;2023-03-26T01:05:58;102330.03;;;7.48;100.00
18900;BME280;9582;52.018;6.306;2023-03-26T01:08:34;102335.25;;;7.47;100.00
18900;BME280;9582;52.018;6.306;2023-03-26T01:11:07;102340.47;;;7.47;100.00
18900;BME280;9582;52.018;6.306;2023-03-26T01:13:40;102337.88;;;7.47;100.00
18900;BME280;9582;52.018;6.306;2023-03-26T01:16:13;102346.53;;;7.46;100.00
18900;BME280;9582;52.018;6.306;2023-03-26T01:18:45;102350.88;;;7.47;100.00
18900;BME280;9582;52.018;6.306;2023-03-26T01:21:16;102349.16;;;7.47;100.00
18900;BME280;9582;52.018;6.306;2023-03-26T01:23:58;102356.06;;;7.48;100.00
18900;BME280;9582;52.018;6.306;2023-03-26T01:26:36;102357.78;;;7.49;100.00
18900;BME280;9582;52.018;6.306;2023-03-26T01:29:05;102361.28;;;7.50;100.00
18900;BME280;9582;52.018;6.306;2023-03-26T01:31:45;102371.66;;;7.48;100.00
18900;BME280;9582;52.018;6.306;2023-03-26T01:34:18;102382.09;;;7.48;100.00
18900;BME280;9582;52.018;6.306;2023-03-26T01:36:52;102378.63;;;7.49;100.00
18900;BME280;9582;52.018;6.306;2023-03-26T01:39:27;102386.41;;;7.52;100.00
18900;BME280;9582;52.018;6.306;2023-03-26T01:42:00;102380.34;;;7.53;100.00
18900;BME280;9582;52.018;6.306;2023-03-26T01:44:32;102378.56;;;7.55;100.00
18900;BME280;9582;52.018;6.306;2023-03-26T01:47:00;102391.56;;;7.57;100.00
18900;BME280;9582;52.018;6.306;2023-03-26T01:49:27;102389.84;;;7.59;100.00
18900;BME280;9582;52.018;6.306;2023-03-26T01:51:55;102401.09;;;7.60;100.00
18900;BME280;9582;52.018;6.306;2023-03-26T01:54:26;102403.69;;;7.61;100.00
18900;BME280;9582;52.018;6.306;2023-03-26T01:57:01;102408.03;;;7.64;100.00
18900;BME280;9582;52.018;6.306;2023-03-26T01:59:48;102414.06;;;7.66;100.00
18900;BME280;9582;52.018;6.306;2023-03-26T02:02:21;102415.78;;;7.70;100.00
18900;BME280;9582;52.018;6.306;2023-03-26T02:04:54;102426.19;;;7.71;100.00
18900;BME280;9582;52.018;6.306;2023-03-26T02:07:25;102427.91;;;7.72;100.00
18900;BME280;9582;52.018;6.306;2023-03-26T02:09:57;102427.06;;;7.73;100.00
18900;BME280;9582;52.018;6.306;2023-03-26T02:12:25;102433.09;;;7.74;100.00
18900;BME280;9582;52.018;6.306;2023-03-26T02:14:53;102430.50;;;7.74;100.00
18900;BME280;9582;52.018;6.306;2023-03-26T02:17:20;102433.09;;;7.75;100.00
18900;BME280;9582;52.018;6.306;2023-03-26T02:19:49;102441.78;;;7.76;100.00
18900;BME280;9582;52.018;6.306;2023-03-26T02:22:16;102447.00;;;7.76;100.00
18900;BME280;9582;52.018;6.306;2023-03-26T02:24:44;102447.84;;;7.75;100.00
18900;BME280;9582;52.018;6.306;2023-03-26T02:27:12;102443.53;;;7.75;100.00
18900;BME280;9582;52.018;6.306;2023-03-26T02:29:39;102454.81;;;7.76;100.00
18900;BME280;9582;52.018;6.306;2023-03-26T02:32:09;102463.44;;;7.76;100.00
18900;BME280;9582;52.018;6.306;2023-03-26T02:34:37;102464.31;;;7.77;100.00
18900;BME280;9582;52.018;6.306;2023-03-26T02:37:04;102467.81;;;7.77;100.00
18900;BME280;9582;52.018;6.306;2023-03-26T02:39:30;102470.41;;;7.79;100.00
18900;BME280;9582;52.018;6.306;2023-03-26T02:42:02;102475.63;;;7.79;100.00
18900;BME280;9582;52.018;6.306;2023-03-26T02:44:34;102489.47;;;7.79;100.00
18900;BME280;9582;52.018;6.306;2023-03-26T02:47:00;102492.94;;;7.80;100.00
18900;BME280;9582;52.018;6.306;2023-03-26T02:50:06;102510.31;;;7.79;100.00
18900;BME280;9582;52.018;6.306;2023-03-26T02:53:08;102512.91;;;7.79;100.00
18900;BME280;9582;52.018;6.306;2023-03-26T02:55:38;102523.34;;;7.81;100.00
18900;BME280;9582;52.018;6.306;2023-03-26T02:58:05;102526.81;;;7.81;100.00
18900;BME280;9582;52.018;6.306;2023-03-26T03:00:36;102542.44;;;7.81;100.00
18900;BME280;9582;52.018;6.306;2023-03-26T03:03:26;102550.25;;;7.80;100.00
18900;BME280;9582;52.018;6.306;2023-03-26T03:05:58;102550.25;;;7.78;100.00
18900;BME280;9582;52.018;6.306;2023-03-26T03:08:29;102557.19;;;7.76;100.00
18900;BME280;9582;52.018;6.306;2023-03-26T03:11:16;102569.38;;;7.76;100.00
18900;BME280;9582;52.018;6.306;2023-03-26T03:13:46;102572.84;;;7.75;100.00
18900;BME280;9582;52.018;6.306;2023-03-26T03:16:26;102574.59;;;7.73;100.00
18900;BME280;9582;52.018;6.306;2023-03-26T03:18:54;102573.72;;;7.72;100.00
18900;BME280;9582;52.018;6.306;2023-03-26T03:21:25;102589.34;;;7.72;100.00
18900;BME280;9582;52.018;6.306;2023-03-26T03:23:52;102589.34;;;7.72;100.00
18900;BME280;9582;52.018;6.306;2023-03-26T03:26:21;102591.09;;;7.73;100.00
18900;BME280;9582;52.018;6.306;2023-03-26T03:28:52;102601.50;;;7.73;100.00
18900;BME280;9582;52.018;6.306;2023-03-26T03:31:19;102596.28;;;7.72;100.00
18900;BME280;9582;52.018;6.306;2023-03-26T03:33:47;102597.16;;;7.72;100.00
18900;BME280;9582;52.018;6.306;2023-03-26T03:36:19;102597.16;;;7.71;100.00
18900;BME280;9582;52.018;6.306;2023-03-26T03:38:55;102594.56;;;7.69;100.00
18900;BME280;9582;52.018;6.306;2023-03-26T03:41:26;102602.38;;;7.71;100.00
18900;BME280;9582;52.018;6.306;2023-03-26T03:43:53;102599.78;;;7.69;100.00
18900;BME280;9582;52.018;6.306;2023-03-26T03:46:25;102606.72;;;7.70;100.00
18900;BME280;9582;52.018;6.306;2023-03-26T03:48:53;102600.66;;;7.70;100.00
18900;BME280;9582;52.018;6.306;2023-03-26T03:51:27;102595.44;;;7.68;100.00
18900;BME280;9582;52.018;6.306;2023-03-26T03:53:56;102602.38;;;7.69;100.00
18900;BME280;9582;52.018;6.306;2023-03-26T03:56:52;102605.84;;;7.68;100.00
18900;BME280;9582;52.018;6.306;2023-03-26T03:59:41;102609.34;;;7.67;100.00
18900;BME280;9582;52.018;6.306;2023-03-26T04:02:08;102605.00;;;7.68;100.00
18900;BME280;9582;52.018;6.306;2023-03-26T04:04:42;102606.75;;;7.67;100.00
18900;BME280;9582;52.018;6.306;2023-03-26T04:07:12;102605.00;;;7.66;100.00
18900;BME280;9582;52.018;6.306;2023-03-26T04:10:03;102602.41;;;7.65;100.00
18900;BME280;9582;52.018;6.306;2023-03-26T04:12:50;102598.94;;;7.64;100.00
18900;BME280;9582;52.018;6.306;2023-03-26T04:15:19;102596.34;;;7.64;100.00
18900;BME280;9582;52.018;6.306;2023-03-26T04:17:46;102584.19;;;7.62;100.00
18900;BME280;9582;52.018;6.306;2023-03-26T04:20:16;102584.19;;;7.63;100.00
18900;BME280;9582;52.018;6.306;2023-03-26T04:22:46;102580.72;;;7.61;100.00
18900;BME280;9582;52.018;6.306;2023-03-26T04:25:14;102572.03;;;7.62;100.00
18900;BME280;9582;52.018;6.306;2023-03-26T04:27:52;102565.97;;;7.63;100.00
18900;BME280;9582;52.018;6.306;2023-03-26T04:30:42;102557.28;;;7.64;100.00
18900;BME280;9582;52.018;6.306;2023-03-26T04:33:33;102546.00;;;7.64;100.00
18900;BME280;9582;52.018;6.306;2023-03-26T04:36:02;102542.53;;;7.65;100.00
18900;BME280;9582;52.018;6.306;2023-03-26T04:38:38;102538.16;;;7.65;100.00
18900;BME280;9582;52.018;6.306;2023-03-26T04:41:06;102522.53;;;7.65;100.00
18900;BME280;9582;52.018;6.306;2023-03-26T04:43:44;102519.97;;;7.64;100.00
18900;BME280;9582;52.018;6.306;2023-03-26T04:46:37;102513.03;;;7.61;100.00
18900;BME280;9582;52.018;6.306;2023-03-26T04:49:29;102513.91;;;7.60;100.00
18900;BME280;9582;52.018;6.306;2023-03-26T04:51:57;102510.44;;;7.60;100.00
18900;BME280;9582;52.018;6.306;2023-03-26T04:54:43;102512.16;;;7.61;100.00
18900;BME280;9582;52.018;6.306;2023-03-26T04:57:17;102506.94;;;7.62;100.00
18900;BME280;9582;52.018;6.306;2023-03-26T04:59:58;102502.59;;;7.63;100.00
18900;BME280;9582;52.018;6.306;2023-03-26T05:02:28;102489.59;;;7.63;100.00
18900;BME280;9582;52.018;6.306;2023-03-26T05:04:57;102482.66;;;7.63;100.00
18900;BME280;9582;52.018;6.306;2023-03-26T05:07:28;102480.06;;;7.62;100.00
18900;BME280;9582;52.018;6.306;2023-03-26T05:09:58;102486.09;;;7.65;100.00
18900;BME280;9582;52.018;6.306;2023-03-26T05:12:37;102478.28;;;7.65;100.00
18900;BME280;9582;52.018;6.306;2023-03-26T05:15:08;102480.03;;;7.66;100.00
18900;BME280;9582;52.018;6.306;2023-03-26T05:18:05;102475.69;;;7.65;100.00
18900;BME280;9582;52.018;6.306;2023-03-26T05:20:53;102476.56;;;7.67;100.00
18900;BME280;9582;52.018;6.306;2023-03-26T05:23:22;102472.22;;;7.68;100.00
18900;BME280;9582;52.018;6.306;2023-03-26T05:26:05;102471.34;;;7.67;100.00
18900;BME280;9582;52.018;6.306;2023-03-26T05:28:32;102467.00;;;7.66;100.00
18900;BME280;9582;52.018;6.306;2023-03-26T05:31:06;102471.34;;;7.67;100.00
18900;BME280;9582;52.018;6.306;2023-03-26T05:33:37;102458.34;;;7.67;100.00
18900;BME280;9582;52.018;6.306;2023-03-26T05:36:11;102461.81;;;7.68;100.00
18900;BME280;9582;52.018;6.306;2023-03-26T05:38:44;102451.38;;;7.66;100.00
18900;BME280;9582;52.018;6.306;2023-03-26T05:41:15;102454.84;;;7.65;100.00
18900;BME280;9582;52.018;6.306;2023-03-26T05:43:43;102452.25;;;7.65;100.00
18900;BME280;9582;52.018;6.306;2023-03-26T05:46:16;102441.84;;;7.65;100.00
18900;BME280;9582;52.018;6.306;2023-03-26T05:48:44;102444.44;;;7.65;100.00
18900;BME280;9582;52.018;6.306;2023-03-26T05:51:12;102441.84;;;7.65;100.00
18900;BME280;9582;52.018;6.306;2023-03-26T05:53:48;102433.16;;;7.66;100.00
18900;BME280;9582;52.018;6.306;2023-03-26T05:56:33;102428.81;;;7.65;100.00
18900;BME280;9582;52.018;6.306;2023-03-26T05:59:20;102425.38;;;7.65;100.00
18900;BME280;9582;52.018;6.306;2023-03-26T06:01:46;102421.00;;;7.65;100.00
18900;BME280;9582;52.018;6.306;2023-03-26T06:04:52;102422.78;;;7.65;100.00
18900;BME280;9582;52.018;6.306;2023-03-26T06:07:49;102419.31;;;7.64;100.00
18900;BME280;9582;52.018;6.306;2023-03-26T06:10:19;102408.88;;;7.64;100.00
18900;BME280;9582;52.018;6.306;2023-03-26T06:12:45;102398.47;;;7.64;100.00
18900;BME280;9582;52.018;6.306;2023-03-26T06:15:14;102394.13;;;7.65;100.00
18900;BME280;9582;52.018;6.306;2023-03-26T06:17:53;102384.56;;;7.65;100.00
18900;BME280;9582;52.018;6.306;2023-03-26T06:20:40;102381.97;;;7.65;100.00
18900;BME280;9582;52.018;6.306;2023-03-26T06:23:16;102377.66;;;7.64;100.00
18900;BME280;9582;52.018;6.306;2023-03-26T06:26:03;102375.91;;;7.63;100.00
18900;BME280;9582;52.018;6.306;2023-03-26T06:28:44;102375.00;;;7.66;100.00
18900;BME280;9582;52.018;6.306;2023-03-26T06:31:29;102368.06;;;7.66;100.00
18900;BME280;9582;52.018;6.306;2023-03-26T06:34:12;102366.31;;;7.68;100.00
18900;BME280;9582;52.018;6.306;2023-03-26T06:36:38;102368.91;;;7.71;100.00
18900;BME280;9582;52.018;6.306;2023-03-26T06:39:05;102373.22;;;7.74;100.00
18900;BME280;9582;52.018;6.306;2023-03-26T06:41:33;102371.47;;;7.76;100.00
18900;BME280;9582;52.018;6.306;2023-03-26T06:44:11;102381.88;;;7.77;100.00
18900;BME280;9582;52.018;6.306;2023-03-26T06:47:15;102384.44;;;7.80;100.00
18900;BME280;9582;52.018;6.306;2023-03-26T06:50:20;102377.47;;;7.82;100.00
18900;BME280;9582;52.018;6.306;2023-03-26T06:53:05;102377.44;;;7.85;100.00
18900;BME280;9582;52.018;6.306;2023-03-26T06:55:53;102378.31;;;7.86;100.00
18900;BME280;9582;52.018;6.306;2023-03-26T06:58:39;102373.97;;;7.86;100.00
18900;BME280;9582;52.018;6.306;2023-03-26T07:01:24;102373.13;;;7.87;100.00
18900;BME280;9582;52.018;6.306;2023-03-26T07:04:10;102367.03;;;7.85;100.00
18900;BME280;9582;52.018;6.306;2023-03-26T07:06:54;102372.25;;;7.85;100.00
18900;BME280;9582;52.018;6.306;2023-03-26T07:09:40;102366.16;;;7.85;100.00
18900;BME280;9582;52.018;6.306;2023-03-26T07:12:09;102354.91;;;7.84;100.00
18900;BME280;9582;52.018;6.306;2023-03-26T07:15:12;102351.41;;;7.85;100.00
18900;BME280;9582;52.018;6.306;2023-03-26T07:18:09;102343.63;;;7.84;100.00
18900;BME280;9582;52.018;6.306;2023-03-26T07:20:38;102342.72;;;7.86;100.00
18900;BME280;9582;52.018;6.306;2023-03-26T07:23:08;102346.16;;;7.88;100.00
18900;BME280;9582;52.018;6.306;2023-03-26T07:25:51;102347.91;;;7.89;100.00
18900;BME280;9582;52.018;6.306;2023-03-26T07:28:33;102349.63;;;7.90;100.00
18900;BME280;9582;52.018;6.306;2023-03-26T07:31:30;102342.66;;;7.91;100.00
18900;BME280;9582;52.018;6.306;2023-03-26T07:34:36;102334.84;;;7.94;100.00
18900;BME280;9582;52.018;6.306;2023-03-26T07:37:28;102327.03;;;7.95;100.00
18900;BME280;9582;52.018;6.306;2023-03-26T07:40:26;102329.59;;;7.97;100.00
18900;BME280;9582;52.018;6.306;2023-03-26T07:43:31;102319.19;;;7.98;100.00
18900;BME280;9582;52.018;6.306;2023-03-26T07:46:37;102310.47;;;7.99;100.00
18900;BME280;9582;52.018;6.306;2023-03-26T07:49:14;102300.00;;;8.04;100.00
18900;BME280;9582;52.018;6.306;2023-03-26T07:52:00;102302.59;;;8.07;100.00
18900;BME280;9582;52.018;6.306;2023-03-26T07:54:54;102295.56;;;8.10;100.00
18900;BME280;9582;52.018;6.306;2023-03-26T07:57:48;102295.50;;;8.17;100.00
18900;BME280;9582;52.018;6.306;2023-03-26T08:00:43;102293.72;;;8.22;100.00
18900;BME280;9582;52.018;6.306;2023-03-26T08:03:33;102286.75;;;8.24;100.00
18900;BME280;9582;52.018;6.306;2023-03-26T08:06:48;102281.53;;;8.28;100.00
18900;BME280;9582;52.018;6.306;2023-03-26T08:09:34;102272.75;;;8.34;100.00
18900;BME280;9582;52.018;6.306;2023-03-26T08:12:27;102274.47;;;8.38;100.00
18900;BME280;9582;52.018;6.306;2023-03-26T08:15:00;102264.00;;;8.41;100.00
18900;BME280;9582;52.018;6.306;2023-03-26T08:17:35;102256.16;;;8.42;100.00
18900;BME280;9582;52.018;6.306;2023-03-26T08:20:13;102254.34;;;8.47;100.00
18900;BME280;9582;52.018;6.306;2023-03-26T08:22:48;102253.38;;;8.54;100.00
18900;BME280;9582;52.018;6.306;2023-03-26T08:25:25;102254.19;;;8.59;100.00
18900;BME280;9582;52.018;6.306;2023-03-26T08:28:03;102249.75;;;8.64;100.00
18900;BME280;9582;52.018;6.306;2023-03-26T08:30:36;102228.94;;;8.63;100.00
18900;BME280;9582;52.018;6.306;2023-03-26T08:33:10;102223.69;;;8.66;100.00
18900;BME280;9582;52.018;6.306;2023-03-26T08:35:39;102224.47;;;8.69;100.00
18900;BME280;9582;52.018;6.306;2023-03-26T08:38:07;102213.16;;;8.72;100.00
18900;BME280;9582;52.018;6.306;2023-03-26T08:41:12;102213.16;;;8.72;100.00
18900;BME280;9582;52.018;6.306;2023-03-26T08:44:24;102209.63;;;8.75;100.00
18900;BME280;9582;52.018;6.306;2023-03-26T08:47:21;102196.59;;;8.73;100.00
18900;BME280;9582;52.018;6.306;2023-03-26T08:50:19;102187.91;;;8.74;100.00
18900;BME280;9582;52.018;6.306;2023-03-26T08:53:12;102174.97;;;8.66;100.00
18900;BME280;9582;52.018;6.306;2023-03-26T08:55:51;102166.34;;;8.63;100.00
18900;BME280;9582;52.018;6.306;2023-03-26T08:58:44;102155.94;;;8.63;100.00
18900;BME280;9582;52.018;6.306;2023-03-26T09:01:39;102145.50;;;8.63;100.00
18900;BME280;9582;52.018;6.306;2023-03-26T09:07:35;102146.19;;;8.74;100.00
18900;BME280;9582;52.018;6.306;2023-03-26T09:10:41;102142.66;;;8.77;100.00
18900;BME280;9582;52.018;6.306;2023-03-26T09:13:31;102131.41;;;8.75;100.00
18900;BME280;9582;52.018;6.306;2023-03-26T09:22:40;102115.53;;;8.88;100.00
18900;BME280;9582;52.018;6.306;2023-03-26T09:25:22;102104.16;;;8.89;100.00
18900;BME280;9582;52.018;6.306;2023-03-26T09:28:12;102098.06;;;8.92;100.00
18900;BME280;9582;52.018;6.306;2023-03-26T09:30:58;102091.13;;;8.89;100.00
18900;BME280;9582;52.018;6.306;2023-03-26T09:33:52;102089.44;;;8.88;100.00
18900;BME280;9582;52.018;6.306;2023-03-26T09:36:31;102073.78;;;8.88;100.00
18900;BME280;9582;52.018;6.306;2023-03-26T09:39:07;102071.22;;;8.84;100.00
18900;BME280;9582;52.018;6.306;2023-03-26T09:41:38;102066.00;;;8.85;100.00
18900;BME280;9582;52.018;6.306;2023-03-26T09:44:31;102056.44;;;8.84;100.00
18900;BME280;9582;52.018;6.306;2023-03-26T09:47:22;102058.13;;;8.87;100.00
18900;BME280;9582;52.018;6.306;2023-03-26T09:49:56;102061.59;;;8.89;100.00
18900;BME280;9582;52.018;6.306;2023-03-26T09:52:46;102046.88;;;8.85;100.00
18900;BME280;9582;52.018;6.306;2023-03-26T09:55:30;102051.13;;;8.90;100.00
18900;BME280;9582;52.018;6.306;2023-03-26T09:58:14;102056.28;;;8.93;100.00
18900;BME280;9582;52.018;6.306;2023-03-26T10:00:51;102049.28;;;8.95;100.00
18900;BME280;9582;52.018;6.306;2023-03-26T10:03:32;102039.66;;;8.99;100.00
18900;BME280;9582;52.018;6.306;2023-03-26T10:06:25;102042.13;;;9.06;100.00
18900;BME280;9582;52.018;6.306;2023-03-26T10:09:09;102045.59;;;9.08;100.00
18900;BME280;9582;52.018;6.306;2023-03-26T10:11:54;102046.41;;;9.09;100.00
18900;BME280;9582;52.018;6.306;2023-03-26T10:14:28;102036.78;;;9.12;100.00
18900;BME280;9582;52.018;6.306;2023-03-26T10:17:12;102041.09;;;9.15;100.00
18900;BME280;9582;52.018;6.306;2023-03-26T10:19:56;102032.38;;;9.14;100.00
18900;BME280;9582;52.018;6.306;2023-03-26T10:22:40;102028.09;;;9.13;100.00
18900;BME280;9582;52.018;6.306;2023-03-26T10:25:21;102023.75;;;9.12;100.00
18900;BME280;9582;52.018;6.306;2023-03-26T10:27:59;102015.91;;;9.12;100.00
18900;BME280;9582;52.018;6.306;2023-03-26T10:30:47;102011.63;;;9.10;100.00
18900;BME280;9582;52.018;6.306;2023-03-26T10:33:29;102008.09;;;9.12;100.00
18900;BME280;9582;52.018;6.306;2023-03-26T10:36:11;102002.81;;;9.15;100.00
18900;BME280;9582;52.018;6.306;2023-03-26T10:38:52;102001.88;;;9.18;100.00
18900;BME280;9582;52.018;6.306;2023-03-26T10:41:31;101997.41;;;9.24;100.00
18900;BME280;9582;52.018;6.306;2023-03-26T10:47:13;101995.72;;;9.22;100.00
18900;BME280;9582;52.018;6.306;2023-03-26T10:50:03;101982.13;;;9.06;100.00
18900;BME280;9582;52.018;6.306;2023-03-26T10:52:43;101975.38;;;8.96;100.00
18900;BME280;9582;52.018;6.306;2023-03-26T10:55:15;101967.94;;;8.75;100.00
18900;BME280;9582;52.018;6.306;2023-03-26T10:57:46;101949.41;;;8.44;100.00
18900;BME280;9582;52.018;6.306;2023-03-26T11:00:17;101939.34;;;8.23;100.00
18900;BME280;9582;52.018;6.306;2023-03-26T11:03:00;101942.19;;;8.09;100.00
18900;BME280;9582;52.018;6.306;2023-03-26T11:05:46;101934.75;;;7.85;100.00
18900;BME280;9582;52.018;6.306;2023-03-26T11:08:20;101944.47;;;7.76;100.00
18900;BME280;9582;52.018;6.306;2023-03-26T11:10:54;101955.78;;;7.73;100.00
18900;BME280;9582;52.018;6.306;2023-03-26T11:13:33;101960.22;;;7.67;100.00
18900;BME280;9582;52.018;6.306;2023-03-26T11:16:05;101974.09;;;7.67;100.00
18900;BME280;9582;52.018;6.306;2023-03-26T11:18:43;101987.91;;;7.71;100.00
18900;BME280;9582;52.018;6.306;2023-03-26T11:21:18;101982.75;;;7.69;100.00
18900;BME280;9582;52.018;6.306;2023-03-26T11:23:58;101987.97;;;7.66;100.00
18900;BME280;9582;52.018;6.306;2023-03-26T11:26:36;101999.22;;;7.68;100.00
18900;BME280;9582;52.018;6.306;2023-03-26T11:29:19;102008.81;;;7.66;100.00
18900;BME280;9582;52.018;6.306;2023-03-26T11:31:56;102012.28;;;7.67;100.00
18900;BME280;9582;52.018;6.306;2023-03-26T11:34:29;102015.75;;;7.66;100.00
18900;BME280;9582;52.018;6.306;2023-03-26T11:37:00;102027.03;;;7.68;100.00
18900;BME280;9582;52.018;6.306;2023-03-26T11:39:38;102034.84;;;7.68;100.00
18900;BME280;9582;52.018;6.306;2023-03-26T11:42:08;102042.66;;;7.68;100.00
18900;BME280;9582;52.018;6.306;2023-03-26T11:44:45;102047.00;;;7.66;100.00
18900;BME280;9582;52.018;6.306;2023-03-26T11:47:17;102049.63;;;7.64;100.00
18900;BME280;9582;52.018;6.306;2023-03-26T11:49:48;102061.75;;;7.67;100.00
18900;BME280;9582;52.018;6.306;2023-03-26T11:52:18;102063.44;;;7.69;100.00
18900;BME280;9582;52.018;6.306;2023-03-26T11:54:45;102072.16;;;7.65;100.00
18900;BME280;9582;52.018;6.306;2023-03-26T11:57:18;102067.78;;;7.69;100.00
18900;BME280;9582;52.018;6.306;2023-03-26T11:59:50;102075.63;;;7.67;100.00
18900;BME280;9582;52.018;6.306;2023-03-26T12:02:24;102073.88;;;7.68;100.00
18900;BME280;9582;52.018;6.306;2023-03-26T12:05:09;102080.78;;;7.69;100.00
18900;BME280;9582;52.018;6.306;2023-03-26T12:07:44;102081.63;;;7.72;100.00
18900;BME280;9582;52.018;6.306;2023-03-26T12:10:21;102079.88;;;7.73;100.00
18900;BME280;9582;52.018;6.306;2023-03-26T12:12:48;102082.47;;;7.76;100.00
18900;BME280;9582;52.018;6.306;2023-03-26T12:15:15;102080.69;;;7.78;100.00
18900;BME280;9582;52.018;6.306;2023-03-26T12:17:43;102088.47;;;7.79;100.00
18900;BME280;9582;52.018;6.306;2023-03-26T12:20:32;102086.75;;;7.78;100.00
18900;BME280;9582;52.018;6.306;2023-03-26T12:23:03;102073.75;;;7.77;100.00
18900;BME280;9582;52.018;6.306;2023-03-26T12:25:33;102078.06;;;7.78;100.00
18900;BME280;9582;52.018;6.306;2023-03-26T12:28:01;102064.22;;;7.76;100.00
18900;BME280;9582;52.018;6.306;2023-03-26T12:30:30;102062.50;;;7.75;100.00
18900;BME280;9582;52.018;6.306;2023-03-26T12:32:59;102079.06;;;7.69;100.00
18900;BME280;9582;52.018;6.306;2023-03-26T12:35:29;102067.81;;;7.66;100.00
18900;BME280;9582;52.018;6.306;2023-03-26T12:38:15;102074.75;;;7.67;100.00
18900;BME280;9582;52.018;6.306;2023-03-26T12:40:43;102060.97;;;7.57;100.00
18900;BME280;9582;52.018;6.306;2023-03-26T12:43:22;102059.25;;;7.59;100.00
18900;BME280;9582;52.018;6.306;2023-03-26T12:45:53;102051.47;;;7.56;100.00
18900;BME280;9582;52.018;6.306;2023-03-26T12:48:20;102047.09;;;7.58;100.00
18900;BME280;9582;52.018;6.306;2023-03-26T12:51:00;102050.56;;;7.59;100.00
18900;BME280;9582;52.018;6.306;2023-03-26T12:53:45;102067.13;;;7.53;100.00
18900;BME280;9582;52.018;6.306;2023-03-26T12:56:19;102048.03;;;7.51;100.00
18900;BME280;9582;52.018;6.306;2023-03-26T13:01:59;102051.50;;;7.53;100.00
18900;BME280;9582;52.018;6.306;2023-03-26T13:04:36;102054.16;;;7.50;100.00
18900;BME280;9582;52.018;6.306;2023-03-26T13:07:16;102051.50;;;7.53;100.00
18900;BME280;9582;52.018;6.306;2023-03-26T13:10:11;102061.03;;;7.54;100.00
18900;BME280;9582;52.018;6.306;2023-03-26T13:12:47;102061.06;;;7.52;100.00
18900;BME280;9582;52.018;6.306;2023-03-26T13:15:21;102054.91;;;7.56;100.00
18900;BME280;9582;52.018;6.306;2023-03-26T13:17:59;102070.47;;;7.64;100.00
18900;BME280;9582;52.018;6.306;2023-03-26T13:20:36;102058.38;;;7.59;100.00
18900;BME280;9582;52.018;6.306;2023-03-26T13:23:16;102062.66;;;7.64;100.00
18900;BME280;9582;52.018;6.306;2023-03-26T13:25:52;102058.31;;;7.63;100.00
18900;BME280;9582;52.018;6.306;2023-03-26T13:28:26;102051.34;;;7.65;100.00
18900;BME280;9582;52.018;6.306;2023-03-26T13:31:06;102048.69;;;7.68;100.00
18900;BME280;9582;52.018;6.306;2023-03-26T13:33:39;102049.44;;;7.76;100.00
18900;BME280;9582;52.018;6.306;2023-03-26T13:36:15;102045.97;;;7.77;100.00
18900;BME280;9582;52.018;6.306;2023-03-26T13:39:00;102046.75;;;7.82;100.00
18900;BME280;9582;52.018;6.306;2023-03-26T13:41:41;102028.44;;;7.90;100.00
18900;BME280;9582;52.018;6.306;2023-03-26T13:44:16;102030.88;;;7.99;100.00
18900;BME280;9582;52.018;6.306;2023-03-26T13:46:50;102016.06;;;8.04;100.00
18900;BME280;9582;52.018;6.306;2023-03-26T13:49:28;102004.72;;;8.08;100.00
18900;BME280;9582;52.018;6.306;2023-03-26T13:52:04;101995.84;;;8.21;100.00
18900;BME280;9582;52.018;6.306;2023-03-26T13:54:35;102003.44;;;8.35;100.00
18900;BME280;9582;52.018;6.306;2023-03-26T13:57:06;101987.75;;;8.38;100.00
18900;BME280;9582;52.018;6.306;2023-03-26T13:59:38;101970.25;;;8.46;100.00
18900;BME280;9582;52.018;6.306;2023-03-26T14:02:09;101964.13;;;8.47;100.00
18900;BME280;9582;52.018;6.306;2023-03-26T14:04:39;101942.28;;;8.54;100.00
18900;BME280;9582;52.018;6.306;2023-03-26T14:07:12;101940.59;;;8.51;100.00
18900;BME280;9582;52.018;6.306;2023-03-26T14:09:46;101923.09;;;8.58;100.00